createdAt,value
2019-02-28T00:00:10.844Z,142242.69
2019-02-28T00:05:06.912Z,142338.42
2019-02-28T00:10:05.713Z,142364.09
2019-02-28T00:15:04.884Z,142434.17
2019-02-28T00:20:00.822Z,142315.09
2019-02-28T00:24:56.725Z,142276.55
2019-02-28T00:29:52.727Z,142233.36
2019-02-28T00:34:48.639Z,142211.19
2019-02-28T00:39:44.607Z,142338.42
2019-02-28T00:44:43.621Z,142292.88
2019-02-28T00:49:39.649Z,142294.06
2019-02-28T00:54:35.554Z,142200.70
2019-02-28T00:59:31.879Z,142226.38
2019-02-28T01:04:29.838Z,142238.05
2019-02-28T01:09:27.082Z,142161.03
2019-02-28T01:14:24.002Z,142123.70
2019-02-28T01:19:19.914Z,142130.73
2019-02-28T01:24:15.824Z,142119.06
2019-02-28T01:29:11.729Z,142107.38
2019-02-28T01:34:07.638Z,142173.86
2019-02-28T01:39:05.351Z,142081.73
2019-02-28T01:44:02.652Z,142163.37
2019-02-28T01:48:58.790Z,142196.02
2019-02-28T01:53:54.696Z,142056.08
2019-02-28T01:58:51.146Z,142015.22
2019-02-28T02:03:47.270Z,141989.59
2019-02-28T02:08:43.177Z,141994.28
2019-02-28T02:13:39.085Z,141970.94
2019-02-28T02:18:34.997Z,141931.34
2019-02-28T02:23:31.022Z,141906.84
2019-02-28T02:28:27.769Z,141903.36
2019-02-28T02:33:23.909Z,141997.77
2019-02-28T02:38:19.849Z,141986.09
2019-02-28T02:43:15.786Z,141889.34
2019-02-28T02:48:11.789Z,141894.03
2019-02-28T02:53:07.699Z,141890.50
2019-02-28T02:58:03.640Z,141989.59
2019-02-28T03:02:59.553Z,142018.77
2019-02-28T03:07:59.495Z,141965.09
2019-02-28T03:12:53.404Z,141908.00
2019-02-28T03:17:49.458Z,141961.61
2019-02-28T03:22:47.480Z,141888.20
2019-02-28T03:27:43.475Z,141889.34
2019-02-28T03:32:42.367Z,141875.39
2019-02-28T03:37:37.439Z,141898.67
2019-02-28T03:42:33.342Z,141856.75
2019-02-28T03:47:29.364Z,141878.87
2019-02-28T03:52:25.270Z,141821.75
2019-02-28T03:57:27.962Z,141890.50
2019-02-28T04:02:22.248Z,141801.97
2019-02-28T04:07:17.164Z,141776.34
2019-02-28T04:12:13.191Z,141760.05
2019-02-28T04:17:09.102Z,141748.39
2019-02-28T04:22:05.030Z,141757.70
2019-02-28T04:27:06.045Z,141792.64
2019-02-28T04:31:59.518Z,141864.88
2019-02-28T04:36:56.101Z,141870.70
2019-02-28T04:41:52.659Z,141788.00
2019-02-28T04:46:48.544Z,141779.84
2019-02-28T04:51:44.531Z,141743.70
2019-02-28T04:56:42.234Z,141750.72
2019-02-28T05:01:38.863Z,141685.50
2019-02-28T05:06:34.778Z,141687.80
2019-02-28T05:11:31.716Z,141792.64
2019-02-28T05:16:28.512Z,141732.09
2019-02-28T05:21:24.435Z,141722.78
2019-02-28T05:26:20.345Z,141709.92
2019-02-28T05:31:16.280Z,141751.88
2019-02-28T05:36:12.190Z,141760.05
2019-02-28T05:41:08.104Z,141739.06
2019-02-28T05:46:04.024Z,141743.70
2019-02-28T05:50:59.933Z,141743.70
2019-02-28T05:55:58.831Z,141673.84
2019-02-28T06:00:53.658Z,141642.41
2019-02-28T06:05:49.587Z,141657.56
2019-02-28T06:10:45.492Z,141776.34
2019-02-28T06:15:42.241Z,141832.27
2019-02-28T06:20:38.218Z,141807.80
2019-02-28T06:25:34.159Z,141686.66
2019-02-28T06:30:30.095Z,141680.83
2019-02-28T06:35:26.006Z,141780.98
2019-02-28T06:40:21.931Z,141862.53
2019-02-28T06:45:20.648Z,141970.94
2019-02-28T06:50:16.865Z,142036.23
2019-02-28T06:55:20.697Z,142112.06
2019-02-28T07:00:16.812Z,142093.41
2019-02-28T07:05:12.827Z,142166.87
2019-02-28T07:10:16.126Z,142275.39
2019-02-28T07:15:15.733Z,142334.92
2019-02-28T07:20:13.844Z,142410.80
2019-02-28T07:25:12.658Z,142441.17
2019-02-28T07:30:17.157Z,142320.89
2019-02-28T07:35:11.666Z,142238.05
2019-02-28T07:40:15.749Z,142266.06
2019-02-28T07:45:12.705Z,142298.72
2019-02-28T07:50:14.510Z,142389.81
2019-02-28T07:55:15.876Z,142473.84
2019-02-28T08:00:18.292Z,142570.84
2019-02-28T08:05:13.412Z,142651.44
2019-02-28T08:10:47.931Z,142735.59
2019-02-28T08:15:43.959Z,142808.13
2019-02-28T08:20:40.174Z,142957.86
2019-02-28T08:25:36.077Z,143022.23
2019-02-28T08:30:33.236Z,143090.13
2019-02-28T08:35:33.952Z,143088.94
2019-02-28T08:40:27.316Z,142971.92
2019-02-28T08:45:24.466Z,143000.00
2019-02-28T08:50:24.303Z,143038.61
2019-02-28T08:55:28.364Z,143107.66
2019-02-28T09:00:19.370Z,143129.91
2019-02-28T09:05:15.478Z,143194.31
2019-02-28T09:10:37.427Z,143238.81
2019-02-28T09:15:37.981Z,143291.52
2019-02-28T09:20:33.863Z,143340.78
2019-02-28T09:25:29.782Z,143363.03
2019-02-28T09:30:32.249Z,143421.59
2019-02-28T09:35:28.169Z,143514.22
2019-02-28T09:40:25.844Z,143503.67
2019-02-28T09:45:29.401Z,143541.19
2019-02-28T09:50:25.679Z,143513.06
2019-02-28T09:55:21.701Z,143584.53
2019-02-28T10:00:19.240Z,143618.55
2019-02-28T10:05:15.261Z,143599.78
2019-02-28T10:10:21.063Z,143591.61
2019-02-28T10:15:22.243Z,143610.38
2019-02-28T10:20:26.553Z,143721.77
2019-02-28T10:25:19.062Z,143700.64
2019-02-28T10:30:30.518Z,143785.16
2019-02-28T10:35:18.513Z,143930.72
2019-02-28T10:40:18.791Z,143888.44
2019-02-28T10:45:15.687Z,143906.06
2019-02-28T10:50:33.227Z,143921.34
2019-02-28T10:55:27.410Z,143953.03
2019-02-28T11:00:29.378Z,143954.19
2019-02-28T11:05:36.308Z,143940.13
2019-02-28T11:10:37.571Z,143960.06
2019-02-28T11:15:35.687Z,144034.06
2019-02-28T11:20:33.263Z,144004.67
2019-02-28T11:25:34.657Z,144019.94
2019-02-28T11:30:30.146Z,144066.92
2019-02-28T11:35:26.401Z,144144.52
2019-02-28T11:40:25.207Z,144104.56
2019-02-28T11:45:35.678Z,144073.97
2019-02-28T11:50:32.486Z,144130.39
2019-02-28T11:55:30.731Z,144128.08
2019-02-28T12:00:36.811Z,144191.50
2019-02-28T12:05:34.988Z,144183.27
2019-02-28T12:10:34.086Z,144222.08
2019-02-28T12:15:44.157Z,144269.03
2019-02-28T12:20:40.215Z,144276.13
2019-02-28T12:25:36.147Z,144231.42
2019-02-28T12:30:33.163Z,144259.62
2019-02-28T12:35:29.191Z,144232.62
2019-02-28T12:40:30.898Z,144240.83
2019-02-28T12:45:32.730Z,144271.41
2019-02-28T12:50:30.240Z,144325.45
2019-02-28T12:55:26.365Z,144341.95
2019-02-28T13:00:28.443Z,144460.72
2019-02-28T13:05:24.547Z,144466.59
2019-02-28T13:10:26.760Z,144419.56
2019-02-28T13:15:19.702Z,144420.77
2019-02-28T13:20:22.602Z,144367.81
2019-02-28T13:25:19.486Z,144318.41
2019-02-28T13:30:18.469Z,144325.45
2019-02-28T13:35:19.940Z,144351.36
2019-02-28T13:40:22.543Z,144347.83
2019-02-28T13:45:23.768Z,144386.63
2019-02-28T13:50:25.302Z,144468.97
2019-02-28T13:55:20.175Z,144374.84
2019-02-28T14:00:35.440Z,144410.11
2019-02-28T14:05:38.675Z,144473.69
2019-02-28T14:10:29.796Z,144504.23
2019-02-28T14:15:37.153Z,144581.91
2019-02-28T14:20:33.251Z,144621.91
2019-02-28T14:25:29.171Z,144664.25
2019-02-28T14:30:25.600Z,144690.14
2019-02-28T14:35:23.342Z,144619.55
2019-02-28T14:40:19.366Z,144640.75
2019-02-28T14:45:31.174Z,144628.97
2019-02-28T14:50:27.062Z,144624.23
2019-02-28T14:55:23.257Z,144638.37
2019-02-28T15:00:24.187Z,144656.05
2019-02-28T15:05:21.548Z,144628.97
2019-02-28T15:10:21.734Z,144661.89
2019-02-28T15:15:19.516Z,144633.64
2019-02-28T15:20:17.791Z,144647.78
2019-02-28T15:25:18.548Z,144637.22
2019-02-28T15:30:18.153Z,144638.37
2019-02-28T15:35:21.371Z,144697.23
2019-02-28T15:40:27.890Z,144666.62
2019-02-28T15:45:27.153Z,144621.91
2019-02-28T15:50:24.955Z,144588.94
2019-02-28T15:55:22.670Z,144563.08
2019-02-28T16:00:30.170Z,144552.50
2019-02-28T16:05:27.186Z,144534.84
2019-02-28T16:10:35.836Z,144523.06
2019-02-28T16:15:46.301Z,144507.77
2019-02-28T16:20:47.271Z,144491.31
2019-02-28T16:25:46.864Z,144494.83
2019-02-28T16:30:42.171Z,144476.02
2019-02-28T16:35:38.612Z,144467.81
2019-02-28T16:40:34.982Z,144466.59
2019-02-28T16:45:42.529Z,144454.87
2019-02-28T16:50:42.456Z,144443.11
2019-02-28T16:55:39.019Z,144418.41
2019-02-28T17:00:35.322Z,144433.69
2019-02-28T17:05:33.277Z,144440.75
2019-02-28T17:10:33.109Z,144412.47
2019-02-28T17:15:33.858Z,144279.64
2019-02-28T17:20:30.440Z,144223.23
2019-02-28T17:25:26.903Z,144189.14
2019-02-28T17:30:32.999Z,144167.98
2019-02-28T17:35:34.916Z,144151.55
2019-02-28T17:40:31.926Z,144142.16
2019-02-28T17:45:29.142Z,144135.11
2019-02-28T17:56:22.554Z,144113.95
2019-02-28T18:01:21.592Z,144112.80
2019-02-28T18:06:37.036Z,144109.28
2019-02-28T18:11:52.299Z,144095.11
2019-02-28T18:17:05.986Z,144083.36
2019-02-28T18:22:24.434Z,144079.84
2019-02-28T18:27:46.800Z,144071.64
2019-02-28T18:32:43.743Z,144069.28
2019-02-28T18:37:40.516Z,144055.17
2019-02-28T18:42:37.320Z,144046.97
2019-02-28T18:47:36.043Z,144034.06
2019-02-28T18:52:35.924Z,144025.83
2019-02-28T18:57:33.820Z,144003.52
2019-02-28T19:02:30.328Z,143980.00
2019-02-28T19:07:26.645Z,143980.00
2019-02-28T19:12:23.675Z,143984.72
2019-02-28T19:17:20.389Z,143977.69
2019-02-28T19:22:17.536Z,143994.13
2019-02-28T19:27:14.136Z,144009.39
2019-02-28T19:32:10.885Z,144028.19
2019-02-28T19:37:11.557Z,144005.88
2019-02-28T19:42:23.674Z,143996.48
2019-02-28T19:47:25.756Z,144000.00
2019-02-28T19:52:22.779Z,143957.70
2019-02-28T19:57:20.243Z,144021.16
2019-02-28T20:02:16.772Z,143991.77
2019-02-28T20:07:14.886Z,143995.28
2019-02-28T20:12:11.675Z,144011.75
2019-02-28T20:17:08.489Z,143955.39
2019-02-28T20:22:05.388Z,143982.38
2019-02-28T20:27:01.576Z,143940.13
2019-02-28T20:31:58.252Z,143942.44
2019-02-28T20:36:57.982Z,143988.25
2019-02-28T20:41:54.560Z,144028.19
2019-02-28T20:46:51.698Z,143982.38
2019-02-28T20:51:55.071Z,143890.81
2019-02-28T20:56:47.495Z,143830.95
2019-02-28T21:01:44.806Z,143794.55
2019-02-28T21:06:42.221Z,143788.69
2019-02-28T21:11:38.245Z,143786.38
2019-02-28T21:16:37.432Z,143794.55
2019-02-28T21:21:33.458Z,143801.63
2019-02-28T21:26:32.011Z,143782.84
2019-02-28T21:31:28.086Z,143818.05
2019-02-28T21:36:24.101Z,143835.63
2019-02-28T21:41:20.120Z,143829.80
2019-02-28T21:46:21.816Z,143776.98
2019-02-28T21:51:17.844Z,143687.75
2019-02-28T21:56:13.764Z,143653.72
2019-02-28T22:01:09.852Z,143644.34
2019-02-28T22:06:05.851Z,143634.97
2019-02-28T22:11:01.802Z,143617.41
2019-02-28T22:15:57.716Z,143613.87
2019-02-28T22:20:53.799Z,143613.87
2019-02-28T22:25:49.915Z,143616.25
2019-02-28T22:30:47.756Z,143588.09
2019-02-28T22:35:45.675Z,143585.73
2019-02-28T22:40:41.604Z,143592.77
2019-02-28T22:45:38.213Z,143592.77
2019-02-28T22:50:34.116Z,143701.84
2019-02-28T22:55:30.213Z,143747.63
2019-02-28T23:00:31.914Z,143796.91
2019-02-28T23:05:27.842Z,143808.66
2019-02-28T23:10:23.762Z,143829.80
2019-02-28T23:15:21.188Z,143809.81
2019-02-28T23:20:17.088Z,143792.23
2019-02-28T23:25:13.057Z,143792.23
2019-02-28T23:30:33.936Z,143788.69
2019-02-28T23:35:32.169Z,143776.98
2019-02-28T23:40:28.089Z,143760.56
2019-02-28T23:45:25.899Z,143764.08
2019-02-28T23:50:21.897Z,143761.72
2019-02-28T23:55:17.817Z,143768.75
